Chapel Hill, NC (27516)

9:41 PM EDT on April 20, 2015 (GMT -0400)
KNCCHAPE13 | | Change Station
CLOSE
Current Station
Personal Weather Station
Location: Chapel Hill, NC
Elevation: 469 ft
Nearby Weather Stations
Active Advisory: Severe Thunderstorm Watch

Elev 469 ft 35.86 °N, 79.25 °W | Updated 2 seconds ago

Overcast
Overcast
--
Feels Like --
N
-
Wind Variable Wind from North

Today
High -- | Low -- °F
--% Chance of Precip.
Yesterday
High -- | Low -- °F
Precip. -- in
6:37 AM 7:54 PM
Waxing Crescent, 7% visible
Pressure 29.65 in
Visibility 8.0 miles
Clouds Few 4800 ft
Dew Point Not available.
Humidity Not available.
Rainfall 0.00 in
Snow Depth Not available.
UV 0 out of 12
Pollen 8.70 out of 12
Air Quality Not available.
Flu Activity Sporadic
METAR KIGX 210056Z AUTO 00000KT 8SM FEW048 17/15 A2966 RMK AO2 SLP038 T01720150 TSNO

More Conditions Fewer Conditions

Pressure 29.65 in
Visibility 8.0 miles
Clouds Few 4800 ft
Dew Point Not available.
Humidity Not available.
Rainfall 0.00 in
Snow Depth Not available.
UV 0 out of 12
Pollen 8.70 out of 12
Air Quality Not available.
Flu Activity Sporadic
METAR KIGX 210056Z AUTO 00000KT 8SM FEW048 17/15 A2966 RMK AO2 SLP038 T01720150 TSNO

More Conditions Fewer Conditions

The Storm Prediction Center has issued an enhanced risk of severe weather for parts of the Mid-Atlantic and Northeast, including Washington, D.C. Isolated tornadoes cannot be ruled out, but the biggest threat will come from strong thunderstorms producing strong winds and large hail. Tornado Watches are also posted for parts of Georgia, South Carolina, and North Carolina.

10-Day Weather Forecast

Almanac

Astronomy

Apr. 20, 2015 Rise Set
Actual Time
Civil Twilight
Nautical Twilight
Astronomical Twilight
Moon
Length of Visible Light
Length of Day
Tomorrow will be .
, % of the Moon is Illuminated

Today's Extremes

State Highs State Lows

Community

WunderPhotos

Upload Photos

1,815,276 photos uploaded!

WunderBlogs® & News

Nearby

Air Quality

  Air Quality AQ Index Pollutant
Not available.

Snow Depth

Station Depth Elevation

Earthquake Activity

City Distance Mag. Time & Date
Minimum magnitude displayed is 2.5.

Coastal Water Temperatures

Place Temperature

Stations

Nearby Weather Stations

Station Location Temp. Windchill Dew Point Humidity Wind Precip. Elev Updated Type
                   
Severe Thunderstorm Watch
Statement as of 9:24 PM EDT on April 20, 2015

Severe Thunderstorm Watch 89 remains in effect until 1000 PM EDT
for the following locations


NC
. North Carolina counties included are

Alamance Alleghany Anson
Ashe Bertie Caswell
Chatham Davidson Durham
Edgecombe Forsyth Franklin
gates Granville Guilford
Halifax Harnett Hertford
Johnston Lee Montgomery
Moore Nash Northampton
Orange person Randolph
Richmond Rockingham Stanly
Stokes Surry Vance
wake Warren Watauga
Wilkes Wilson Yadkin